sensor_id;sensor_type;location;lat;lon;timestamp;P1;durP1;ratioP1;P2;durP2;ratioP2
1593;SDS011;790;47.000;16.084;2023-05-07T00:02:10;10.73;;;6.00;;
1593;SDS011;790;47.000;16.084;2023-05-07T00:04:39;20.07;;;6.27;;
1593;SDS011;790;47.000;16.084;2023-05-07T00:07:06;20.17;;;6.23;;
1593;SDS011;790;47.000;16.084;2023-05-07T00:09:33;20.83;;;6.00;;
1593;SDS011;790;47.000;16.084;2023-05-07T00:12:00;9.07;;;5.00;;
1593;SDS011;790;47.000;16.084;2023-05-07T00:14:27;22.00;;;5.37;;
1593;SDS011;790;47.000;16.084;2023-05-07T00:16:56;24.30;;;6.23;;
1593;SDS011;790;47.000;16.084;2023-05-07T00:19:23;12.70;;;6.10;;
1593;SDS011;790;47.000;16.084;2023-05-07T00:21:51;17.40;;;5.67;;
1593;SDS011;790;47.000;16.084;2023-05-07T00:24:18;17.77;;;5.37;;
1593;SDS011;790;47.000;16.084;2023-05-07T00:26:47;5.43;;;5.03;;
1593;SDS011;790;47.000;16.084;2023-05-07T00:29:14;5.33;;;4.93;;
1593;SDS011;790;47.000;16.084;2023-05-07T00:31:42;4.87;;;4.57;;
1593;SDS011;790;47.000;16.084;2023-05-07T00:34:13;5.83;;;5.03;;
1593;SDS011;790;47.000;16.084;2023-05-07T00:36:40;5.90;;;4.90;;
1593;SDS011;790;47.000;16.084;2023-05-07T00:39:09;5.13;;;4.83;;
1593;SDS011;790;47.000;16.084;2023-05-07T00:41:36;12.10;;;5.07;;
1593;SDS011;790;47.000;16.084;2023-05-07T00:44:03;4.87;;;4.57;;
1593;SDS011;790;47.000;16.084;2023-05-07T00:46:31;9.33;;;4.60;;
1593;SDS011;790;47.000;16.084;2023-05-07T00:48:59;7.90;;;4.90;;
1593;SDS011;790;47.000;16.084;2023-05-07T00:51:29;4.80;;;4.40;;
1593;SDS011;790;47.000;16.084;2023-05-07T00:53:57;5.10;;;4.80;;
1593;SDS011;790;47.000;16.084;2023-05-07T00:56:24;5.20;;;4.90;;
1593;SDS011;790;47.000;16.084;2023-05-07T00:58:53;4.67;;;4.33;;
1593;SDS011;790;47.000;16.084;2023-05-07T01:01:20;4.77;;;4.47;;
1593;SDS011;790;47.000;16.084;2023-05-07T01:03:47;4.33;;;4.03;;
1593;SDS011;790;47.000;16.084;2023-05-07T01:06:15;4.57;;;4.27;;
1593;SDS011;790;47.000;16.084;2023-05-07T01:08:44;4.37;;;4.17;;
1593;SDS011;790;47.000;16.084;2023-05-07T01:11:12;5.23;;;4.30;;
1593;SDS011;790;47.000;16.084;2023-05-07T01:13:41;4.97;;;4.43;;
1593;SDS011;790;47.000;16.084;2023-05-07T01:16:09;5.80;;;4.50;;
1593;SDS011;790;47.000;16.084;2023-05-07T01:18:36;6.33;;;4.57;;
1593;SDS011;790;47.000;16.084;2023-05-07T01:21:04;4.30;;;4.00;;
1593;SDS011;790;47.000;16.084;2023-05-07T01:23:34;4.77;;;4.47;;
1593;SDS011;790;47.000;16.084;2023-05-07T01:26:02;4.70;;;4.30;;
1593;SDS011;790;47.000;16.084;2023-05-07T01:28:29;4.10;;;3.90;;
1593;SDS011;790;47.000;16.084;2023-05-07T01:30:58;4.60;;;3.90;;
1593;SDS011;790;47.000;16.084;2023-05-07T01:33:29;4.17;;;3.97;;
1593;SDS011;790;47.000;16.084;2023-05-07T01:35:58;4.37;;;4.17;;
1593;SDS011;790;47.000;16.084;2023-05-07T01:38:28;4.13;;;3.80;;
1593;SDS011;790;47.000;16.084;2023-05-07T01:40:57;3.97;;;3.77;;
1593;SDS011;790;47.000;16.084;2023-05-07T01:43:25;4.53;;;4.23;;
1593;SDS011;790;47.000;16.084;2023-05-07T01:45:53;4.73;;;4.33;;
1593;SDS011;790;47.000;16.084;2023-05-07T01:48:21;4.23;;;3.93;;
1593;SDS011;790;47.000;16.084;2023-05-07T01:50:51;4.33;;;4.03;;
1593;SDS011;790;47.000;16.084;2023-05-07T01:53:19;4.37;;;3.97;;
1593;SDS011;790;47.000;16.084;2023-05-07T01:55:46;4.40;;;4.20;;
1593;SDS011;790;47.000;16.084;2023-05-07T01:58:14;4.77;;;4.33;;
1593;SDS011;790;47.000;16.084;2023-05-07T02:00:41;4.50;;;4.17;;
1593;SDS011;790;47.000;16.084;2023-05-07T02:03:09;4.63;;;4.03;;
1593;SDS011;790;47.000;16.084;2023-05-07T02:05:36;11.63;;;5.13;;
1593;SDS011;790;47.000;16.084;2023-05-07T02:08:05;4.60;;;4.20;;
1593;SDS011;790;47.000;16.084;2023-05-07T02:10:32;4.53;;;4.23;;
1593;SDS011;790;47.000;16.084;2023-05-07T02:13:01;8.97;;;4.40;;
1593;SDS011;790;47.000;16.084;2023-05-07T02:15:30;4.27;;;4.07;;
1593;SDS011;790;47.000;16.084;2023-05-07T02:17:58;4.80;;;4.50;;
1593;SDS011;790;47.000;16.084;2023-05-07T02:20:26;4.97;;;4.67;;
1593;SDS011;790;47.000;16.084;2023-05-07T02:22:53;5.77;;;5.30;;
1593;SDS011;790;47.000;16.084;2023-05-07T02:25:21;5.27;;;4.97;;
1593;SDS011;790;47.000;16.084;2023-05-07T02:27:48;5.63;;;4.80;;
1593;SDS011;790;47.000;16.084;2023-05-07T02:30:17;5.27;;;4.77;;
1593;SDS011;790;47.000;16.084;2023-05-07T02:32:51;5.07;;;4.77;;
1593;SDS011;790;47.000;16.084;2023-05-07T02:35:18;5.67;;;5.20;;
1593;SDS011;790;47.000;16.084;2023-05-07T02:37:45;6.77;;;5.10;;
1593;SDS011;790;47.000;16.084;2023-05-07T02:40:13;6.03;;;5.63;;
1593;SDS011;790;47.000;16.084;2023-05-07T02:42:41;5.63;;;5.23;;
1593;SDS011;790;47.000;16.084;2023-05-07T02:45:09;5.33;;;5.03;;
1593;SDS011;790;47.000;16.084;2023-05-07T02:47:37;5.93;;;5.53;;
1593;SDS011;790;47.000;16.084;2023-05-07T02:50:09;6.13;;;5.63;;
1593;SDS011;790;47.000;16.084;2023-05-07T02:52:37;5.43;;;5.00;;
1593;SDS011;790;47.000;16.084;2023-05-07T02:55:04;7.63;;;5.63;;
1593;SDS011;790;47.000;16.084;2023-05-07T02:57:32;5.13;;;4.83;;
1593;SDS011;790;47.000;16.084;2023-05-07T03:00:08;5.83;;;5.33;;
1593;SDS011;790;47.000;16.084;2023-05-07T03:02:51;5.57;;;5.07;;
1593;SDS011;790;47.000;16.084;2023-05-07T03:05:20;5.60;;;5.10;;
1593;SDS011;790;47.000;16.084;2023-05-07T03:07:47;5.37;;;4.87;;
1593;SDS011;790;47.000;16.084;2023-05-07T03:10:16;6.17;;;5.40;;
1593;SDS011;790;47.000;16.084;2023-05-07T03:12:49;5.97;;;5.40;;
1593;SDS011;790;47.000;16.084;2023-05-07T03:15:16;6.13;;;5.73;;
1593;SDS011;790;47.000;16.084;2023-05-07T03:17:44;5.93;;;5.53;;
1593;SDS011;790;47.000;16.084;2023-05-07T03:20:13;6.20;;;5.77;;
1593;SDS011;790;47.000;16.084;2023-05-07T03:22:46;7.17;;;6.40;;
1593;SDS011;790;47.000;16.084;2023-05-07T03:25:13;8.00;;;7.30;;
1593;SDS011;790;47.000;16.084;2023-05-07T03:27:40;7.77;;;7.07;;
1593;SDS011;790;47.000;16.084;2023-05-07T03:30:09;36.33;;;9.13;;
1593;SDS011;790;47.000;16.084;2023-05-07T03:32:38;40.10;;;10.60;;
1593;SDS011;790;47.000;16.084;2023-05-07T03:35:05;33.37;;;9.33;;
1593;SDS011;790;47.000;16.084;2023-05-07T03:37:33;90.30;;;11.03;;
1593;SDS011;790;47.000;16.084;2023-05-07T03:40:06;10.83;;;8.57;;
1593;SDS011;790;47.000;16.084;2023-05-07T03:42:36;11.87;;;8.67;;
1593;SDS011;790;47.000;16.084;2023-05-07T03:45:03;19.93;;;8.07;;
1593;SDS011;790;47.000;16.084;2023-05-07T03:47:31;8.73;;;7.57;;
1593;SDS011;790;47.000;16.084;2023-05-07T03:50:00;28.70;;;7.43;;
1593;SDS011;790;47.000;16.084;2023-05-07T03:52:28;6.93;;;6.43;;
1593;SDS011;790;47.000;16.084;2023-05-07T03:54:56;28.97;;;7.17;;
1593;SDS011;790;47.000;16.084;2023-05-07T03:57:25;37.90;;;6.43;;
1593;SDS011;790;47.000;16.084;2023-05-07T03:59:52;6.60;;;6.20;;
1593;SDS011;790;47.000;16.084;2023-05-07T04:02:21;32.80;;;6.23;;
1593;SDS011;790;47.000;16.084;2023-05-07T04:05:07;14.33;;;6.50;;
1593;SDS011;790;47.000;16.084;2023-05-07T04:07:36;11.17;;;5.80;;
1593;SDS011;790;47.000;16.084;2023-05-07T04:10:11;6.10;;;5.70;;
1593;SDS011;790;47.000;16.084;2023-05-07T04:12:56;22.07;;;5.60;;
1593;SDS011;790;47.000;16.084;2023-05-07T04:15:32;5.97;;;5.53;;
1593;SDS011;790;47.000;16.084;2023-05-07T04:18:05;7.80;;;5.10;;
1593;SDS011;790;47.000;16.084;2023-05-07T04:20:52;5.27;;;4.87;;
1593;SDS011;790;47.000;16.084;2023-05-07T04:23:50;9.20;;;4.97;;
1593;SDS011;790;47.000;16.084;2023-05-07T04:26:43;5.57;;;5.17;;
1593;SDS011;790;47.000;16.084;2023-05-07T04:32:04;4.90;;;4.60;;
1593;SDS011;790;47.000;16.084;2023-05-07T04:35:08;10.43;;;5.00;;
1593;SDS011;790;47.000;16.084;2023-05-07T04:40:46;6.53;;;6.03;;
1593;SDS011;790;47.000;16.084;2023-05-07T04:43:33;5.97;;;5.50;;
1593;SDS011;790;47.000;16.084;2023-05-07T04:46:18;6.23;;;5.73;;
1593;SDS011;790;47.000;16.084;2023-05-07T04:48:47;6.80;;;6.30;;
1593;SDS011;790;47.000;16.084;2023-05-07T04:51:34;6.90;;;6.40;;
1593;SDS011;790;47.000;16.084;2023-05-07T04:54:35;7.13;;;6.43;;
1593;SDS011;790;47.000;16.084;2023-05-07T04:57:28;7.13;;;6.53;;
1593;SDS011;790;47.000;16.084;2023-05-07T05:00:04;6.67;;;6.27;;
1593;SDS011;790;47.000;16.084;2023-05-07T05:05:44;6.07;;;5.67;;
1593;SDS011;790;47.000;16.084;2023-05-07T05:11:06;5.93;;;5.57;;
1593;SDS011;790;47.000;16.084;2023-05-07T05:13:46;5.53;;;5.20;;
1593;SDS011;790;47.000;16.084;2023-05-07T05:16:18;5.30;;;5.00;;
1593;SDS011;790;47.000;16.084;2023-05-07T05:18:51;5.07;;;4.77;;
1593;SDS011;790;47.000;16.084;2023-05-07T05:21:25;4.50;;;4.20;;
1593;SDS011;790;47.000;16.084;2023-05-07T05:24:10;5.90;;;5.43;;
1593;SDS011;790;47.000;16.084;2023-05-07T05:26:42;5.07;;;4.77;;
1593;SDS011;790;47.000;16.084;2023-05-07T05:29:22;4.80;;;4.50;;
1593;SDS011;790;47.000;16.084;2023-05-07T05:34:45;4.73;;;4.50;;
1593;SDS011;790;47.000;16.084;2023-05-07T05:37:15;5.27;;;4.97;;
1593;SDS011;790;47.000;16.084;2023-05-07T05:39:50;5.03;;;4.63;;
1593;SDS011;790;47.000;16.084;2023-05-07T05:42:30;6.80;;;5.50;;
1593;SDS011;790;47.000;16.084;2023-05-07T05:44:59;17.43;;;6.17;;
1593;SDS011;790;47.000;16.084;2023-05-07T05:47:34;11.53;;;6.90;;
1593;SDS011;790;47.000;16.084;2023-05-07T05:50:08;26.10;;;8.07;;
1593;SDS011;790;47.000;16.084;2023-05-07T05:52:55;27.67;;;8.30;;
1593;SDS011;790;47.000;16.084;2023-05-07T05:55:27;43.07;;;9.10;;
1593;SDS011;790;47.000;16.084;2023-05-07T05:58:12;13.47;;;9.27;;
1593;SDS011;790;47.000;16.084;2023-05-07T06:00:43;9.40;;;8.70;;
1593;SDS011;790;47.000;16.084;2023-05-07T06:03:29;10.50;;;9.60;;
1593;SDS011;790;47.000;16.084;2023-05-07T06:06:12;11.00;;;9.87;;
1593;SDS011;790;47.000;16.084;2023-05-07T06:08:42;10.33;;;9.50;;
1593;SDS011;790;47.000;16.084;2023-05-07T06:11:27;11.27;;;10.20;;
1593;SDS011;790;47.000;16.084;2023-05-07T06:14:08;11.30;;;10.20;;
1593;SDS011;790;47.000;16.084;2023-05-07T06:16:43;9.93;;;9.00;;
1593;SDS011;790;47.000;16.084;2023-05-07T06:19:31;10.17;;;9.37;;
1593;SDS011;790;47.000;16.084;2023-05-07T06:22:14;9.17;;;8.47;;
1593;SDS011;790;47.000;16.084;2023-05-07T06:24:47;10.43;;;9.60;;
1593;SDS011;790;47.000;16.084;2023-05-07T06:27:20;8.63;;;8.03;;
1593;SDS011;790;47.000;16.084;2023-05-07T06:30:07;10.60;;;9.70;;
1593;SDS011;790;47.000;16.084;2023-05-07T06:32:57;10.90;;;10.10;;
1593;SDS011;790;47.000;16.084;2023-05-07T06:35:47;9.60;;;8.83;;
1593;SDS011;790;47.000;16.084;2023-05-07T06:38:32;10.43;;;9.63;;
1593;SDS011;790;47.000;16.084;2023-05-07T06:44:17;9.90;;;9.00;;
1593;SDS011;790;47.000;16.084;2023-05-07T06:46:49;9.93;;;9.13;;
1593;SDS011;790;47.000;16.084;2023-05-07T06:49:34;10.53;;;9.73;;
1593;SDS011;790;47.000;16.084;2023-05-07T06:52:23;10.60;;;9.80;;
1593;SDS011;790;47.000;16.084;2023-05-07T06:55:02;10.57;;;9.73;;
1593;SDS011;790;47.000;16.084;2023-05-07T06:57:34;10.10;;;9.20;;
1593;SDS011;790;47.000;16.084;2023-05-07T07:03:41;10.80;;;9.87;;
1593;SDS011;790;47.000;16.084;2023-05-07T07:06:26;10.67;;;9.77;;
1593;SDS011;790;47.000;16.084;2023-05-07T07:08:58;9.88;;;9.10;;
1593;SDS011;790;47.000;16.084;2023-05-07T07:11:41;10.43;;;9.43;;
1593;SDS011;790;47.000;16.084;2023-05-07T07:14:11;10.10;;;9.27;;
1593;SDS011;790;47.000;16.084;2023-05-07T07:16:44;10.40;;;9.55;;
1593;SDS011;790;47.000;16.084;2023-05-07T07:19:27;9.43;;;8.63;;
1593;SDS011;790;47.000;16.084;2023-05-07T07:21:54;9.77;;;9.02;;
1593;SDS011;790;47.000;16.084;2023-05-07T07:24:22;10.43;;;9.55;;
1593;SDS011;790;47.000;16.084;2023-05-07T07:26:51;12.10;;;9.38;;
1593;SDS011;790;47.000;16.084;2023-05-07T07:29:20;9.07;;;8.38;;
1593;SDS011;790;47.000;16.084;2023-05-07T07:31:49;10.20;;;9.27;;
1593;SDS011;790;47.000;16.084;2023-05-07T07:34:16;9.68;;;8.95;;
1593;SDS011;790;47.000;16.084;2023-05-07T07:36:43;9.68;;;8.98;;
1593;SDS011;790;47.000;16.084;2023-05-07T07:39:12;8.40;;;7.72;;
1593;SDS011;790;47.000;16.084;2023-05-07T07:41:45;9.48;;;8.60;;
1593;SDS011;790;47.000;16.084;2023-05-07T07:44:15;8.45;;;7.78;;
1593;SDS011;790;47.000;16.084;2023-05-07T07:46:42;8.48;;;7.88;;
1593;SDS011;790;47.000;16.084;2023-05-07T07:49:09;9.18;;;8.48;;
1593;SDS011;790;47.000;16.084;2023-05-07T07:51:38;8.32;;;7.60;;
1593;SDS011;790;47.000;16.084;2023-05-07T07:54:08;7.85;;;7.30;;
1593;SDS011;790;47.000;16.084;2023-05-07T07:56:36;9.57;;;8.75;;
1593;SDS011;790;47.000;16.084;2023-05-07T07:59:04;8.35;;;7.75;;
1593;SDS011;790;47.000;16.084;2023-05-07T08:01:34;8.68;;;7.30;;
1593;SDS011;790;47.000;16.084;2023-05-07T08:04:01;8.57;;;7.00;;
1593;SDS011;790;47.000;16.084;2023-05-07T08:06:31;6.85;;;6.35;;
1593;SDS011;790;47.000;16.084;2023-05-07T08:08:59;6.72;;;6.22;;
1593;SDS011;790;47.000;16.084;2023-05-07T08:11:27;6.03;;;5.53;;
1593;SDS011;790;47.000;16.084;2023-05-07T08:13:56;5.95;;;5.55;;
1593;SDS011;790;47.000;16.084;2023-05-07T08:16:23;6.38;;;5.88;;
1593;SDS011;790;47.000;16.084;2023-05-07T08:18:52;5.72;;;5.32;;
1593;SDS011;790;47.000;16.084;2023-05-07T08:21:20;6.05;;;5.55;;
1593;SDS011;790;47.000;16.084;2023-05-07T08:23:47;5.95;;;5.45;;
1593;SDS011;790;47.000;16.084;2023-05-07T08:26:14;5.85;;;5.00;;
1593;SDS011;790;47.000;16.084;2023-05-07T08:28:41;5.30;;;4.82;;
1593;SDS011;790;47.000;16.084;2023-05-07T08:31:08;5.47;;;4.93;;
1593;SDS011;790;47.000;16.084;2023-05-07T08:33:35;5.20;;;4.80;;
1593;SDS011;790;47.000;16.084;2023-05-07T08:36:05;4.78;;;4.38;;
1593;SDS011;790;47.000;16.084;2023-05-07T08:38:32;4.50;;;4.20;;
1593;SDS011;790;47.000;16.084;2023-05-07T08:41:00;5.85;;;4.10;;
1593;SDS011;790;47.000;16.084;2023-05-07T08:43:27;4.32;;;4.03;;
1593;SDS011;790;47.000;16.084;2023-05-07T08:45:55;4.43;;;4.13;;
1593;SDS011;790;47.000;16.084;2023-05-07T08:48:25;4.03;;;3.72;;
1593;SDS011;790;47.000;16.084;2023-05-07T08:50:53;4.47;;;4.07;;
1593;SDS011;790;47.000;16.084;2023-05-07T08:53:22;4.00;;;3.80;;
1593;SDS011;790;47.000;16.084;2023-05-07T08:55:56;3.92;;;3.72;;
1593;SDS011;790;47.000;16.084;2023-05-07T08:58:23;3.90;;;3.63;;
1593;SDS011;790;47.000;16.084;2023-05-07T09:00:51;3.40;;;3.20;;
1593;SDS011;790;47.000;16.084;2023-05-07T09:03:20;3.63;;;3.40;;
1593;SDS011;790;47.000;16.084;2023-05-07T09:05:48;3.50;;;3.30;;
1593;SDS011;790;47.000;16.084;2023-05-07T09:08:15;3.35;;;3.15;;
1593;SDS011;790;47.000;16.084;2023-05-07T09:10:44;3.28;;;3.10;;
1593;SDS011;790;47.000;16.084;2023-05-07T09:13:11;3.47;;;3.17;;
1593;SDS011;790;47.000;16.084;2023-05-07T09:15:39;2.97;;;2.72;;
1593;SDS011;790;47.000;16.084;2023-05-07T09:18:07;2.78;;;2.55;;
1593;SDS011;790;47.000;16.084;2023-05-07T09:20:34;3.75;;;2.55;;
1593;SDS011;790;47.000;16.084;2023-05-07T09:23:03;3.38;;;2.80;;
1593;SDS011;790;47.000;16.084;2023-05-07T09:25:33;2.97;;;2.67;;
1593;SDS011;790;47.000;16.084;2023-05-07T09:28:04;2.70;;;2.58;;
1593;SDS011;790;47.000;16.084;2023-05-07T09:30:33;2.80;;;2.13;;
1593;SDS011;790;47.000;16.084;2023-05-07T09:33:01;2.47;;;2.38;;
1593;SDS011;790;47.000;16.084;2023-05-07T09:35:29;2.50;;;2.40;;
1593;SDS011;790;47.000;16.084;2023-05-07T09:37:57;2.47;;;2.22;;
1593;SDS011;790;47.000;16.084;2023-05-07T09:40:27;3.17;;;2.50;;
1593;SDS011;790;47.000;16.084;2023-05-07T09:42:55;2.30;;;2.00;;
1593;SDS011;790;47.000;16.084;2023-05-07T09:45:24;3.17;;;2.13;;
1593;SDS011;790;47.000;16.084;2023-05-07T09:47:54;2.30;;;2.20;;
1593;SDS011;790;47.000;16.084;2023-05-07T09:50:25;2.80;;;2.63;;
1593;SDS011;790;47.000;16.084;2023-05-07T09:52:54;2.20;;;2.10;;
1593;SDS011;790;47.000;16.084;2023-05-07T09:55:24;2.03;;;1.83;;
1593;SDS011;790;47.000;16.084;2023-05-07T09:57:52;2.45;;;2.30;;
1593;SDS011;790;47.000;16.084;2023-05-07T10:00:21;2.85;;;2.03;;
1593;SDS011;790;47.000;16.084;2023-05-07T10:02:51;2.75;;;2.38;;
1593;SDS011;790;47.000;16.084;2023-05-07T10:05:19;2.85;;;2.65;;
1593;SDS011;790;47.000;16.084;2023-05-07T10:07:46;2.33;;;2.17;;
1593;SDS011;790;47.000;16.084;2023-05-07T10:10:14;2.20;;;2.10;;
1593;SDS011;790;47.000;16.084;2023-05-07T10:12:41;7.43;;;2.33;;
1593;SDS011;790;47.000;16.084;2023-05-07T10:15:09;5.55;;;2.50;;
1593;SDS011;790;47.000;16.084;2023-05-07T10:17:42;2.35;;;2.25;;
1593;SDS011;790;47.000;16.084;2023-05-07T10:20:10;2.50;;;2.40;;
1593;SDS011;790;47.000;16.084;2023-05-07T10:22:40;2.58;;;2.47;;
1593;SDS011;790;47.000;16.084;2023-05-07T10:25:13;3.60;;;3.40;;
1593;SDS011;790;47.000;16.084;2023-05-07T10:27:43;2.58;;;2.38;;
1593;SDS011;790;47.000;16.084;2023-05-07T10:30:15;1.90;;;1.80;;
1593;SDS011;790;47.000;16.084;2023-05-07T10:32:55;2.20;;;2.10;;
1593;SDS011;790;47.000;16.084;2023-05-07T10:35:31;1.92;;;1.92;;
1593;SDS011;790;47.000;16.084;2023-05-07T10:38:02;2.17;;;1.90;;
1593;SDS011;790;47.000;16.084;2023-05-07T10:40:30;2.20;;;2.00;;
1593;SDS011;790;47.000;16.084;2023-05-07T10:42:58;2.20;;;2.10;;
1593;SDS011;790;47.000;16.084;2023-05-07T10:45:26;2.42;;;2.33;;
1593;SDS011;790;47.000;16.084;2023-05-07T10:50:51;1.63;;;1.63;;
1593;SDS011;790;47.000;16.084;2023-05-07T10:54:18;1.95;;;1.85;;
1593;SDS011;790;47.000;16.084;2023-05-07T10:59:51;4.15;;;2.40;;
1593;SDS011;790;47.000;16.084;2023-05-07T11:08:55;2.08;;;1.98;;
1593;SDS011;790;47.000;16.084;2023-05-07T11:11:44;2.20;;;2.05;;
1593;SDS011;790;47.000;16.084;2023-05-07T11:14:13;1.90;;;1.80;;
1593;SDS011;790;47.000;16.084;2023-05-07T11:16:41;2.17;;;2.03;;
1593;SDS011;790;47.000;16.084;2023-05-07T11:19:14;4.93;;;2.22;;
1593;SDS011;790;47.000;16.084;2023-05-07T11:21:45;2.05;;;1.95;;
1593;SDS011;790;47.000;16.084;2023-05-07T11:24:13;2.25;;;2.15;;
1593;SDS011;790;47.000;16.084;2023-05-07T11:26:46;2.35;;;2.20;;
1593;SDS011;790;47.000;16.084;2023-05-07T11:29:15;2.28;;;2.13;;
1593;SDS011;790;47.000;16.084;2023-05-07T11:31:44;2.72;;;2.00;;
1593;SDS011;790;47.000;16.084;2023-05-07T11:34:25;4.05;;;2.28;;
1593;SDS011;790;47.000;16.084;2023-05-07T11:37:44;3.70;;;2.20;;
1593;SDS011;790;47.000;16.084;2023-05-07T11:40:31;2.10;;;2.00;;
1593;SDS011;790;47.000;16.084;2023-05-07T11:43:14;3.10;;;2.28;;
1593;SDS011;790;47.000;16.084;2023-05-07T11:46:08;2.20;;;2.10;;
1593;SDS011;790;47.000;16.084;2023-05-07T11:48:42;1.90;;;1.80;;
1593;SDS011;790;47.000;16.084;2023-05-07T11:51:19;2.65;;;2.45;;
1593;SDS011;790;47.000;16.084;2023-05-07T11:54:06;2.10;;;2.00;;
1593;SDS011;790;47.000;16.084;2023-05-07T11:56:37;2.97;;;2.30;;
1593;SDS011;790;47.000;16.084;2023-05-07T11:59:18;2.55;;;2.35;;
1593;SDS011;790;47.000;16.084;2023-05-07T12:01:46;3.00;;;2.80;;
1593;SDS011;790;47.000;16.084;2023-05-07T12:04:13;2.58;;;2.47;;
1593;SDS011;790;47.000;16.084;2023-05-07T12:06:45;3.03;;;2.83;;
1593;SDS011;790;47.000;16.084;2023-05-07T12:09:18;2.80;;;2.60;;
1593;SDS011;790;47.000;16.084;2023-05-07T12:11:45;2.55;;;2.45;;
1593;SDS011;790;47.000;16.084;2023-05-07T12:14:13;4.38;;;3.00;;
1593;SDS011;790;47.000;16.084;2023-05-07T12:16:41;2.83;;;2.63;;
1593;SDS011;790;47.000;16.084;2023-05-07T12:19:13;2.60;;;2.33;;
1593;SDS011;790;47.000;16.084;2023-05-07T12:21:43;2.72;;;2.63;;
1593;SDS011;790;47.000;16.084;2023-05-07T12:24:39;2.88;;;2.67;;
1593;SDS011;790;47.000;16.084;2023-05-07T12:27:10;3.28;;;2.97;;
1593;SDS011;790;47.000;16.084;2023-05-07T12:29:37;3.00;;;2.80;;
1593;SDS011;790;47.000;16.084;2023-05-07T12:32:15;3.00;;;2.80;;
1593;SDS011;790;47.000;16.084;2023-05-07T12:34:58;3.15;;;3.00;;
1593;SDS011;790;47.000;16.084;2023-05-07T12:37:40;3.63;;;3.33;;
1593;SDS011;790;47.000;16.084;2023-05-07T12:40:11;2.80;;;2.70;;
1593;SDS011;790;47.000;16.084;2023-05-07T12:42:40;3.97;;;3.30;;
1593;SDS011;790;47.000;16.084;2023-05-07T12:45:22;4.07;;;3.83;;
1593;SDS011;790;47.000;16.084;2023-05-07T12:47:56;3.83;;;3.63;;
1593;SDS011;790;47.000;16.084;2023-05-07T12:50:31;4.18;;;3.78;;
1593;SDS011;790;47.000;16.084;2023-05-07T12:53:06;4.30;;;4.00;;
1593;SDS011;790;47.000;16.084;2023-05-07T12:58:51;4.13;;;3.92;;
1593;SDS011;790;47.000;16.084;2023-05-07T13:01:29;5.25;;;4.65;;
1593;SDS011;790;47.000;16.084;2023-05-07T13:03:59;4.85;;;4.45;;
1593;SDS011;790;47.000;16.084;2023-05-07T13:06:27;4.93;;;4.50;;
1593;SDS011;790;47.000;16.084;2023-05-07T13:08:55;4.40;;;4.00;;
1593;SDS011;790;47.000;16.084;2023-05-07T13:11:23;4.32;;;4.03;;
1593;SDS011;790;47.000;16.084;2023-05-07T13:13:52;4.60;;;4.30;;
1593;SDS011;790;47.000;16.084;2023-05-07T13:16:33;4.35;;;4.05;;
1593;SDS011;790;47.000;16.084;2023-05-07T13:19:01;4.15;;;3.95;;
1593;SDS011;790;47.000;16.084;2023-05-07T13:21:29;5.05;;;4.15;;
1593;SDS011;790;47.000;16.084;2023-05-07T13:23:58;4.53;;;4.22;;
1593;SDS011;790;47.000;16.084;2023-05-07T13:26:25;4.40;;;4.10;;
1593;SDS011;790;47.000;16.084;2023-05-07T13:28:55;4.97;;;4.53;;
1593;SDS011;790;47.000;16.084;2023-05-07T13:31:22;4.40;;;4.05;;
1593;SDS011;790;47.000;16.084;2023-05-07T13:33:49;4.60;;;4.38;;
1593;SDS011;790;47.000;16.084;2023-05-07T13:36:17;4.43;;;4.00;;
1593;SDS011;790;47.000;16.084;2023-05-07T13:38:45;4.50;;;4.20;;
1593;SDS011;790;47.000;16.084;2023-05-07T13:41:26;5.15;;;4.75;;
1593;SDS011;790;47.000;16.084;2023-05-07T13:46:40;5.25;;;4.90;;
1593;SDS011;790;47.000;16.084;2023-05-07T13:49:11;5.05;;;4.65;;
1593;SDS011;790;47.000;16.084;2023-05-07T13:51:46;4.53;;;4.22;;
1593;SDS011;790;47.000;16.084;2023-05-07T13:54:13;4.90;;;4.60;;
1593;SDS011;790;47.000;16.084;2023-05-07T13:56:42;5.20;;;4.80;;
1593;SDS011;790;47.000;16.084;2023-05-07T13:59:23;4.65;;;4.22;;
1593;SDS011;790;47.000;16.084;2023-05-07T14:01:56;5.22;;;4.82;;
1593;SDS011;790;47.000;16.084;2023-05-07T14:04:25;5.65;;;5.15;;
1593;SDS011;790;47.000;16.084;2023-05-07T14:06:52;5.22;;;4.82;;
1593;SDS011;790;47.000;16.084;2023-05-07T14:09:36;4.95;;;4.55;;
1593;SDS011;790;47.000;16.084;2023-05-07T14:12:03;4.85;;;4.55;;
1593;SDS011;790;47.000;16.084;2023-05-07T14:14:32;5.68;;;5.28;;
1593;SDS011;790;47.000;16.084;2023-05-07T14:17:02;5.82;;;5.45;;
1593;SDS011;790;47.000;16.084;2023-05-07T14:19:30;6.35;;;5.60;;
1593;SDS011;790;47.000;16.084;2023-05-07T14:21:57;6.18;;;5.78;;
1593;SDS011;790;47.000;16.084;2023-05-07T14:27:30;7.57;;;6.97;;
1593;SDS011;790;47.000;16.084;2023-05-07T14:30:04;6.65;;;6.25;;
1593;SDS011;790;47.000;16.084;2023-05-07T14:32:55;6.82;;;6.32;;
1593;SDS011;790;47.000;16.084;2023-05-07T14:35:23;7.18;;;6.57;;
1593;SDS011;790;47.000;16.084;2023-05-07T14:37:51;7.30;;;6.70;;
1593;SDS011;790;47.000;16.084;2023-05-07T14:40:19;7.00;;;6.50;;
1593;SDS011;790;47.000;16.084;2023-05-07T14:42:46;8.00;;;7.32;;
1593;SDS011;790;47.000;16.084;2023-05-07T14:45:37;8.70;;;6.95;;
1593;SDS011;790;47.000;16.084;2023-05-07T14:51:22;7.88;;;7.22;;
1593;SDS011;790;47.000;16.084;2023-05-07T14:53:56;8.82;;;7.85;;
1593;SDS011;790;47.000;16.084;2023-05-07T14:56:39;8.13;;;7.32;;
1593;SDS011;790;47.000;16.084;2023-05-07T14:59:17;7.35;;;6.85;;
1593;SDS011;790;47.000;16.084;2023-05-07T15:04:56;8.60;;;7.95;;
1593;SDS011;790;47.000;16.084;2023-05-07T15:07:34;7.78;;;7.20;;
1593;SDS011;790;47.000;16.084;2023-05-07T15:10:04;7.65;;;7.00;;
1593;SDS011;790;47.000;16.084;2023-05-07T15:12:34;7.47;;;6.90;;
1593;SDS011;790;47.000;16.084;2023-05-07T15:15:18;7.28;;;6.75;;
1593;SDS011;790;47.000;16.084;2023-05-07T15:17:49;7.93;;;7.32;;
1593;SDS011;790;47.000;16.084;2023-05-07T15:20:28;8.00;;;7.40;;
1593;SDS011;790;47.000;16.084;2023-05-07T15:23:29;8.00;;;7.25;;
1593;SDS011;790;47.000;16.084;2023-05-07T15:26:13;8.73;;;7.07;;
1593;SDS011;790;47.000;16.084;2023-05-07T15:28:48;6.90;;;6.50;;
1593;SDS011;790;47.000;16.084;2023-05-07T15:31:30;7.32;;;6.72;;
1593;SDS011;790;47.000;16.084;2023-05-07T15:37:01;7.45;;;6.88;;
1593;SDS011;790;47.000;16.084;2023-05-07T15:39:45;7.82;;;7.18;;
1593;SDS011;790;47.000;16.084;2023-05-07T15:42:24;7.95;;;7.40;;
1593;SDS011;790;47.000;16.084;2023-05-07T15:45:02;7.90;;;7.30;;
1593;SDS011;790;47.000;16.084;2023-05-07T15:47:39;7.97;;;7.22;;
1593;SDS011;790;47.000;16.084;2023-05-07T15:50:16;7.45;;;6.75;;
1593;SDS011;790;47.000;16.084;2023-05-07T15:52:57;8.10;;;7.50;;
1593;SDS011;790;47.000;16.084;2023-05-07T15:55:25;7.43;;;6.70;;
1593;SDS011;790;47.000;16.084;2023-05-07T15:58:01;8.60;;;7.93;;
1593;SDS011;790;47.000;16.084;2023-05-07T16:03:05;8.55;;;7.85;;
1593;SDS011;790;47.000;16.084;2023-05-07T16:05:48;9.07;;;8.23;;
1593;SDS011;790;47.000;16.084;2023-05-07T16:08:34;10.18;;;9.32;;
1593;SDS011;790;47.000;16.084;2023-05-07T16:11:05;9.45;;;8.68;;
1593;SDS011;790;47.000;16.084;2023-05-07T16:13:41;8.90;;;8.30;;
1593;SDS011;790;47.000;16.084;2023-05-07T16:16:09;12.43;;;11.32;;
1593;SDS011;790;47.000;16.084;2023-05-07T16:18:39;15.45;;;13.95;;
1593;SDS011;790;47.000;16.084;2023-05-07T16:21:15;11.85;;;10.85;;
1593;SDS011;790;47.000;16.084;2023-05-07T16:26:27;10.45;;;9.55;;
1593;SDS011;790;47.000;16.084;2023-05-07T16:28:57;11.57;;;10.65;;
1593;SDS011;790;47.000;16.084;2023-05-07T16:31:24;16.20;;;14.63;;
1593;SDS011;790;47.000;16.084;2023-05-07T16:33:52;13.57;;;12.30;;
1593;SDS011;790;47.000;16.084;2023-05-07T16:36:19;17.85;;;16.27;;
1593;SDS011;790;47.000;16.084;2023-05-07T16:38:48;11.40;;;10.48;;
1593;SDS011;790;47.000;16.084;2023-05-07T16:41:19;11.32;;;10.32;;
1593;SDS011;790;47.000;16.084;2023-05-07T16:43:49;15.93;;;14.43;;